Main page
METAR-TAF:

METAR-TAF

Airports :

Pamplona Airport

Pamplona, Spain

latitude: 42-46N, longitude: 001-38W, elevation: 459 m

Current weather observation

The report was made 31 minutes ago, at 15:00 UTC
Wind 6 kt from the North/Northwest, varying between West/Northwest and Northeast
Temperature 17°C
Humidity 39%
Pressure 1016 hPa
Visibility 10 km or more
Few clouds at a height of 3500 ft

METAR: LEPP 281500Z 34006KT 290V040 9999 FEW035 17/03 Q1016

Time: 16:31 (15:31 UTC)

Forecast

The report was made 1 hour and 31 minutes ago, at 14:00 UTC
Forecast valid from 28 at 15 UTC to 29 at 15 UTC
Wind 5 kt from variable directions
Visibility 10 km or more
no clouds below 1500 m and no cumulonimbus
Temporary
from 28 at 15 UTC to 28 at 19 UTC
Wind 10 kt from the North/Northwest
Becoming
from 29 at 09 UTC to 29 at 11 UTC
Wind 17 kt from the North/Northwest

TAF: LEPP 281400Z 2815/2915 VRB05KT CAVOK TX14/2915Z TN01/2906Z TEMPO 2815/2819 34010KT BECMG 2909/2911 34017KT

Weather observations and forecasts of more than 4000 airports (METAR and TAF reports).

The available stations are represented by yellow and red dots on the map.

Hover mouse over dot to see the name of the station.

Then click to see weather observations and forecasts.

To change the map : click on the green buttons with a black cross to zoom in, on the green button with a dash to zoom out, or on the green arrows for adjacent maps.


METAR-TAF: